createdAt,value
2018-08-29T00:00:12.443Z,16.20
2018-08-29T00:02:41.231Z,16.30
2018-08-29T00:05:09.758Z,16.30
2018-08-29T00:07:43.966Z,16.30
2018-08-29T00:10:17.661Z,16.30
2018-08-29T00:12:47.258Z,16.30
2018-08-29T00:15:16.062Z,16.30
2018-08-29T00:17:44.698Z,16.30
2018-08-29T00:20:13.243Z,16.30
2018-08-29T00:22:41.951Z,16.30
2018-08-29T00:25:10.495Z,16.40
2018-08-29T00:27:39.210Z,16.40
2018-08-29T00:30:07.907Z,16.40
2018-08-29T00:32:36.403Z,16.40
2018-08-29T00:35:05.143Z,16.40
2018-08-29T00:37:34.230Z,16.40
2018-08-29T00:40:02.694Z,16.40
2018-08-29T00:42:31.380Z,16.40
2018-08-29T00:45:00.142Z,16.40
2018-08-29T00:47:28.650Z,16.40
2018-08-29T00:49:57.298Z,16.30
2018-08-29T00:52:25.915Z,16.30
2018-08-29T00:54:54.411Z,16.30
2018-08-29T00:57:22.991Z,16.30
2018-08-29T00:59:51.659Z,16.20
2018-08-29T01:02:20.162Z,16.20
2018-08-29T01:04:48.754Z,16.20
2018-08-29T01:07:17.296Z,16.10
2018-08-29T01:09:45.806Z,16.10
2018-08-29T01:12:18.478Z,15.90
2018-08-29T01:14:46.967Z,15.90
2018-08-29T01:17:15.605Z,15.90
2018-08-29T01:19:44.737Z,15.90
2018-08-29T01:22:13.406Z,15.80
2018-08-29T01:24:42.039Z,15.80
2018-08-29T01:27:10.749Z,15.70
2018-08-29T01:29:39.447Z,15.80
2018-08-29T01:32:07.949Z,15.80
2018-08-29T01:34:36.402Z,15.80
2018-08-29T01:37:05.062Z,15.70
2018-08-29T01:39:33.539Z,15.70
2018-08-29T01:42:02.152Z,15.70
2018-08-29T01:44:31.455Z,15.70
2018-08-29T01:47:00.034Z,15.60
2018-08-29T01:49:28.719Z,15.70
2018-08-29T01:51:57.422Z,15.70
2018-08-29T01:54:26.152Z,15.70
2018-08-29T01:56:54.912Z,15.60
2018-08-29T01:59:23.758Z,15.50
2018-08-29T02:01:52.327Z,15.50
2018-08-29T02:04:20.865Z,15.50
2018-08-29T02:06:49.473Z,15.60
2018-08-29T02:09:18.011Z,15.70
2018-08-29T02:11:46.495Z,15.80
2018-08-29T02:14:16.047Z,15.80
2018-08-29T02:16:44.689Z,15.90
2018-08-29T02:19:13.233Z,15.90
2018-08-29T02:21:41.864Z,16.00
2018-08-29T02:24:10.367Z,16.00
2018-08-29T02:26:39.140Z,16.00
2018-08-29T02:29:07.631Z,15.90
2018-08-29T02:31:36.379Z,15.90
2018-08-29T02:34:04.891Z,15.80
2018-08-29T02:36:33.558Z,15.70
2018-08-29T02:39:02.071Z,15.70
2018-08-29T02:41:30.731Z,15.80
2018-08-29T02:43:59.200Z,15.80
2018-08-29T02:46:27.690Z,15.90
2018-08-29T02:48:56.395Z,15.80
2018-08-29T02:51:24.975Z,15.80
2018-08-29T02:53:53.479Z,15.90
2018-08-29T02:56:21.963Z,15.80
2018-08-29T02:58:50.619Z,15.90
2018-08-29T03:01:19.191Z,15.90
2018-08-29T03:03:47.647Z,15.90
2018-08-29T03:06:16.288Z,16.00
2018-08-29T03:08:44.897Z,16.00
2018-08-29T03:11:13.537Z,15.90
2018-08-29T03:13:42.000Z,15.80
2018-08-29T03:16:10.496Z,15.70
2018-08-29T03:18:39.038Z,15.60
2018-08-29T03:21:07.590Z,15.60
2018-08-29T03:23:36.054Z,15.50
2018-08-29T03:26:04.762Z,15.40
2018-08-29T03:28:33.234Z,15.30
2018-08-29T03:31:02.047Z,15.20
2018-08-29T03:33:30.607Z,15.10
2018-08-29T03:35:59.138Z,14.90
2018-08-29T03:38:28.263Z,14.90
2018-08-29T03:40:56.619Z,14.90
2018-08-29T03:43:25.127Z,14.90
2018-08-29T03:45:54.159Z,14.90
2018-08-29T03:48:22.655Z,14.90
2018-08-29T03:50:51.322Z,14.90
2018-08-29T03:53:19.797Z,14.90
2018-08-29T03:55:48.318Z,14.80
2018-08-29T03:58:16.967Z,14.80
2018-08-29T04:00:45.487Z,14.80
2018-08-29T04:03:14.218Z,14.80
2018-08-29T04:05:42.698Z,14.90
2018-08-29T04:08:11.260Z,14.80
2018-08-29T04:10:39.766Z,14.80
2018-08-29T04:13:08.433Z,14.80
2018-08-29T04:15:36.950Z,14.60
2018-08-29T04:18:06.858Z,14.50
2018-08-29T04:20:37.198Z,14.50
2018-08-29T04:23:07.290Z,14.50
2018-08-29T04:25:36.007Z,14.60
2018-08-29T04:28:04.875Z,14.60
2018-08-29T04:30:33.487Z,14.50
2018-08-29T04:33:02.092Z,14.40
2018-08-29T04:35:30.745Z,14.40
2018-08-29T04:37:59.470Z,14.40
2018-08-29T04:40:27.969Z,14.30
2018-08-29T04:42:56.454Z,14.30
2018-08-29T04:45:25.100Z,14.30
2018-08-29T04:47:53.575Z,14.30
2018-08-29T04:50:22.040Z,14.40
2018-08-29T04:52:50.688Z,14.40
2018-08-29T04:55:19.223Z,14.40
2018-08-29T04:57:48.531Z,14.40
2018-08-29T05:00:17.103Z,14.40
2018-08-29T05:02:45.832Z,14.50
2018-08-29T05:05:14.327Z,14.50
2018-08-29T05:07:42.787Z,14.50
2018-08-29T05:10:11.671Z,14.50
2018-08-29T05:12:40.237Z,14.50
2018-08-29T05:15:08.725Z,14.60
2018-08-29T05:17:37.193Z,14.60
2018-08-29T05:20:05.995Z,14.70
2018-08-29T05:22:34.616Z,14.70
2018-08-29T05:25:03.272Z,14.70
2018-08-29T05:27:31.982Z,14.70
2018-08-29T05:30:00.508Z,14.80
2018-08-29T05:32:29.069Z,14.90
2018-08-29T05:34:57.614Z,15.00
2018-08-29T05:37:26.241Z,15.10
2018-08-29T05:39:54.739Z,15.10
2018-08-29T05:42:23.368Z,15.20
2018-08-29T05:44:52.190Z,15.20
2018-08-29T05:47:20.774Z,15.20
2018-08-29T05:49:49.380Z,15.20
2018-08-29T05:52:17.855Z,15.30
2018-08-29T05:54:46.735Z,15.30
2018-08-29T05:57:15.230Z,15.20
2018-08-29T05:59:43.805Z,15.20
2018-08-29T06:02:12.555Z,15.20
2018-08-29T06:04:41.029Z,15.20
2018-08-29T06:07:09.510Z,15.30
2018-08-29T06:09:38.083Z,15.30
2018-08-29T06:12:07.126Z,15.40
2018-08-29T06:14:35.621Z,15.50
2018-08-29T06:17:04.374Z,15.50
2018-08-29T06:19:33.110Z,15.50
2018-08-29T06:22:01.619Z,15.60
2018-08-29T06:24:30.232Z,15.70
2018-08-29T06:26:58.872Z,15.70
2018-08-29T06:29:27.398Z,15.80
2018-08-29T06:31:55.910Z,15.80
2018-08-29T06:34:25.470Z,15.80
2018-08-29T06:36:54.130Z,15.90
2018-08-29T06:39:22.664Z,17.00
2018-08-29T06:41:51.104Z,16.00
2018-08-29T06:44:19.707Z,16.10
2018-08-29T06:46:48.274Z,16.20
2018-08-29T06:49:16.860Z,16.30
2018-08-29T06:51:45.469Z,16.40
2018-08-29T06:54:14.070Z,16.50
2018-08-29T06:56:42.677Z,16.60
2018-08-29T06:59:14.008Z,16.70
2018-08-29T07:01:42.732Z,16.80
2018-08-29T07:04:11.275Z,17.00
2018-08-29T07:06:39.835Z,17.10
2018-08-29T07:09:11.070Z,17.20
2018-08-29T07:11:40.158Z,17.30
2018-08-29T07:14:09.543Z,17.40
2018-08-29T07:16:38.427Z,17.50
2018-08-29T07:19:07.087Z,17.60
2018-08-29T07:21:36.228Z,17.70
2018-08-29T07:24:05.256Z,17.80
2018-08-29T07:26:33.891Z,17.90
2018-08-29T07:29:02.755Z,18.00
2018-08-29T07:31:31.327Z,18.00
2018-08-29T07:33:59.989Z,18.10
2018-08-29T07:36:28.702Z,18.20
2018-08-29T07:38:57.339Z,18.30
2018-08-29T07:41:25.941Z,18.40
2018-08-29T07:43:54.398Z,18.50
2018-08-29T07:46:23.042Z,18.60
2018-08-29T07:48:51.523Z,18.70
2018-08-29T07:51:20.386Z,18.90
2018-08-29T07:53:49.162Z,19.00
2018-08-29T07:56:17.762Z,19.10
2018-08-29T07:58:46.240Z,19.20
2018-08-29T08:01:14.756Z,19.30
2018-08-29T08:03:43.249Z,19.50
2018-08-29T08:06:11.812Z,19.50
2018-08-29T08:08:45.988Z,19.60
2018-08-29T08:11:14.161Z,19.70
2018-08-29T08:13:42.934Z,19.70
2018-08-29T08:16:11.483Z,19.80
2018-08-29T08:18:39.999Z,19.80
2018-08-29T08:21:08.697Z,19.90
2018-08-29T08:23:37.503Z,19.90
2018-08-29T08:26:06.026Z,20.00
2018-08-29T08:28:34.630Z,20.10
2018-08-29T08:31:03.115Z,20.10
2018-08-29T08:33:31.672Z,20.20
2018-08-29T08:36:00.216Z,20.30
2018-08-29T08:38:33.950Z,20.40
2018-08-29T08:41:02.702Z,20.40
2018-08-29T08:43:31.425Z,20.50
2018-08-29T08:46:00.090Z,19.60
2018-08-29T08:48:28.733Z,20.60
2018-08-29T08:50:57.385Z,20.70
2018-08-29T08:53:26.058Z,20.80
2018-08-29T08:55:54.873Z,20.80
2018-08-29T08:58:23.422Z,20.80
2018-08-29T09:00:52.068Z,21.00
2018-08-29T09:03:20.603Z,21.10
2018-08-29T09:05:49.246Z,21.20
2018-08-29T09:08:18.038Z,21.30
2018-08-29T09:10:46.827Z,21.50
2018-08-29T09:13:15.554Z,21.60
2018-08-29T09:15:44.206Z,21.70
2018-08-29T09:18:12.851Z,21.70
2018-08-29T09:20:41.356Z,21.80
2018-08-29T09:23:10.081Z,21.80
2018-08-29T09:25:38.699Z,21.80
2018-08-29T09:28:07.447Z,21.90
2018-08-29T09:30:35.958Z,21.90
2018-08-29T09:33:04.602Z,22.00
2018-08-29T09:35:33.266Z,22.10
2018-08-29T09:38:01.858Z,22.10
2018-08-29T09:40:30.450Z,22.20
2018-08-29T09:42:59.447Z,22.10
2018-08-29T09:45:27.977Z,22.20
2018-08-29T09:47:56.562Z,22.20
2018-08-29T09:50:25.099Z,22.20
2018-08-29T09:52:53.754Z,22.30
2018-08-29T09:55:22.266Z,22.10
2018-08-29T09:57:50.725Z,22.10
2018-08-29T10:00:24.991Z,22.10
2018-08-29T10:02:56.262Z,22.20
2018-08-29T10:05:26.307Z,22.30
2018-08-29T10:07:55.198Z,22.30
2018-08-29T10:10:24.193Z,22.30
2018-08-29T10:12:52.678Z,22.30
2018-08-29T10:15:21.324Z,22.30
2018-08-29T10:17:49.874Z,22.20
2018-08-29T10:20:18.383Z,22.20
2018-08-29T10:22:46.889Z,22.30
2018-08-29T10:25:15.511Z,22.40
2018-08-29T10:27:43.991Z,22.40
2018-08-29T10:30:12.587Z,22.30
2018-08-29T10:32:41.273Z,22.30
2018-08-29T10:35:09.774Z,22.50
2018-08-29T10:37:38.659Z,22.50
2018-08-29T10:40:07.890Z,22.80
2018-08-29T10:42:36.419Z,22.70
2018-08-29T10:45:05.253Z,22.50
2018-08-29T10:47:33.872Z,22.50
2018-08-29T10:50:02.626Z,22.40
2018-08-29T10:52:31.457Z,22.70
2018-08-29T10:55:00.060Z,22.90
2018-08-29T10:57:28.532Z,23.10
2018-08-29T10:59:57.194Z,23.20
2018-08-29T11:02:25.899Z,23.20
2018-08-29T11:04:54.585Z,23.10
2018-08-29T11:07:23.225Z,23.10
2018-08-29T11:09:51.799Z,23.10
2018-08-29T11:12:20.478Z,23.30
2018-08-29T11:14:49.383Z,23.40
2018-08-29T11:17:18.022Z,23.40
2018-08-29T11:19:46.539Z,23.30
2018-08-29T11:22:15.230Z,23.20
2018-08-29T11:24:43.758Z,23.30
2018-08-29T11:27:12.227Z,23.40
2018-08-29T11:29:40.825Z,23.50
2018-08-29T11:32:09.675Z,23.50
2018-08-29T11:34:38.351Z,23.40
2018-08-29T11:37:06.843Z,23.40
2018-08-29T11:39:35.496Z,23.40
2018-08-29T11:42:04.682Z,23.60
2018-08-29T11:44:33.170Z,23.50
2018-08-29T11:47:01.773Z,23.60
2018-08-29T11:49:30.267Z,23.70
2018-08-29T11:51:58.953Z,23.90
2018-08-29T11:54:27.493Z,23.90
2018-08-29T11:56:56.391Z,23.70
2018-08-29T11:59:24.952Z,23.60
2018-08-29T12:01:53.470Z,23.40
2018-08-29T12:04:22.079Z,23.30
2018-08-29T12:06:50.621Z,23.20
2018-08-29T12:09:19.321Z,23.20
2018-08-29T12:11:47.856Z,23.10
2018-08-29T12:14:16.380Z,23.10
2018-08-29T12:16:45.345Z,23.10
2018-08-29T12:19:13.945Z,23.00
2018-08-29T12:21:42.554Z,22.90
2018-08-29T12:24:11.335Z,23.20
2018-08-29T12:26:39.841Z,23.50
2018-08-29T12:29:08.804Z,23.70
2018-08-29T12:31:37.316Z,23.70
2018-08-29T12:34:05.934Z,23.70
2018-08-29T12:36:34.385Z,23.60
2018-08-29T12:39:03.248Z,23.60
2018-08-29T12:41:31.847Z,23.50
2018-08-29T12:44:00.601Z,23.50
2018-08-29T12:46:29.069Z,23.40
2018-08-29T12:48:57.706Z,23.40
2018-08-29T12:51:26.201Z,23.40
2018-08-29T12:53:54.729Z,23.30
2018-08-29T12:56:23.410Z,23.40
2018-08-29T12:58:51.934Z,23.60
2018-08-29T13:01:20.428Z,22.50
2018-08-29T13:03:49.120Z,23.80
2018-08-29T13:06:17.673Z,23.80
2018-08-29T13:08:46.279Z,23.70
2018-08-29T13:11:15.123Z,23.80
2018-08-29T13:13:43.861Z,23.90
2018-08-29T13:16:12.533Z,23.80
2018-08-29T13:18:41.053Z,23.70
2018-08-29T13:21:09.834Z,23.40
2018-08-29T13:23:38.601Z,23.40
2018-08-29T13:26:07.487Z,23.50
2018-08-29T13:28:36.400Z,23.30
2018-08-29T13:31:05.084Z,23.10
2018-08-29T13:33:33.792Z,23.10
2018-08-29T13:36:02.478Z,23.10
2018-08-29T13:38:31.116Z,23.10
2018-08-29T13:40:59.679Z,23.10
2018-08-29T13:43:28.369Z,23.00
2018-08-29T13:45:56.884Z,23.10
2018-08-29T13:48:25.500Z,23.00
2018-08-29T13:50:54.097Z,22.90
2018-08-29T13:53:22.752Z,22.90
2018-08-29T13:55:51.215Z,23.00
2018-08-29T13:58:20.571Z,23.20
2018-08-29T14:00:49.362Z,23.30
2018-08-29T14:03:17.949Z,23.20
2018-08-29T14:05:46.574Z,23.10
2018-08-29T14:08:15.333Z,22.90
2018-08-29T14:10:43.864Z,22.90
2018-08-29T14:13:12.844Z,22.80
2018-08-29T14:15:41.658Z,22.80
2018-08-29T14:18:10.294Z,22.90
2018-08-29T14:20:39.270Z,22.70
2018-08-29T14:23:07.796Z,22.60
2018-08-29T14:25:36.395Z,22.50
2018-08-29T14:28:04.943Z,22.50
2018-08-29T14:30:33.750Z,22.50
2018-08-29T14:33:02.240Z,22.60
2018-08-29T14:35:30.775Z,22.70
2018-08-29T14:37:59.695Z,22.90
2018-08-29T14:40:28.430Z,23.40
2018-08-29T14:42:57.214Z,23.50
2018-08-29T14:45:25.812Z,23.60
2018-08-29T14:47:54.455Z,23.60
2018-08-29T14:50:23.041Z,23.60
2018-08-29T14:52:51.557Z,23.50
2018-08-29T14:55:20.264Z,23.40
2018-08-29T14:57:48.872Z,23.40
2018-08-29T15:00:59.002Z,23.40
2018-08-29T15:04:35.979Z,23.60
2018-08-29T15:07:05.684Z,23.80
2018-08-29T15:09:35.076Z,24.10
2018-08-29T15:12:03.995Z,24.00
2018-08-29T15:14:32.975Z,24.00
2018-08-29T15:17:01.837Z,24.10
2018-08-29T15:19:30.530Z,24.10
2018-08-29T15:21:59.262Z,24.30
2018-08-29T15:24:27.889Z,24.40
2018-08-29T15:26:56.990Z,24.20
2018-08-29T15:29:25.618Z,24.20
2018-08-29T15:31:54.124Z,24.20
2018-08-29T15:34:22.699Z,24.10
2018-08-29T15:36:51.509Z,24.20
2018-08-29T15:39:20.133Z,24.10
2018-08-29T15:41:48.678Z,24.00
2018-08-29T15:44:17.315Z,24.00
2018-08-29T15:46:45.945Z,24.00
2018-08-29T15:49:14.765Z,24.00
2018-08-29T15:51:43.319Z,23.90
2018-08-29T15:54:11.957Z,23.80
2018-08-29T15:56:40.633Z,23.80
2018-08-29T15:59:09.408Z,23.70
2018-08-29T16:01:38.168Z,23.50
2018-08-29T16:04:06.758Z,23.40
2018-08-29T16:06:35.335Z,23.30
2018-08-29T16:09:04.479Z,23.30
2018-08-29T16:11:33.111Z,23.10
2018-08-29T16:14:01.882Z,23.00
2018-08-29T16:16:30.464Z,23.10
2018-08-29T16:18:59.223Z,22.90
2018-08-29T16:21:27.843Z,22.90
2018-08-29T16:23:56.655Z,23.00
2018-08-29T16:26:25.168Z,23.20
2018-08-29T16:28:53.808Z,23.10
2018-08-29T16:31:22.371Z,22.90
2018-08-29T16:33:50.919Z,22.60
2018-08-29T16:36:19.433Z,22.30
2018-08-29T16:38:47.958Z,22.10
2018-08-29T16:41:16.607Z,21.80
2018-08-29T16:43:45.383Z,21.70
2018-08-29T16:46:13.964Z,21.50
2018-08-29T16:48:42.650Z,21.30
2018-08-29T16:51:11.259Z,21.20
2018-08-29T16:53:40.078Z,21.10
2018-08-29T16:56:08.885Z,21.00
2018-08-29T16:58:37.785Z,21.00
2018-08-29T17:01:06.491Z,20.90
2018-08-29T17:03:35.213Z,20.80
2018-08-29T17:06:03.895Z,20.80
2018-08-29T17:08:32.766Z,20.80
2018-08-29T17:11:01.301Z,20.70
2018-08-29T17:13:30.072Z,20.70
2018-08-29T17:15:59.182Z,20.60
2018-08-29T17:18:27.763Z,20.60
2018-08-29T17:20:56.354Z,20.50
2018-08-29T17:23:25.032Z,20.50
2018-08-29T17:25:53.743Z,20.50
2018-08-29T17:28:22.582Z,20.50
2018-08-29T17:30:51.501Z,20.50
2018-08-29T17:33:20.385Z,20.50
2018-08-29T17:35:49.171Z,20.40
2018-08-29T17:38:17.853Z,20.30
2018-08-29T17:40:46.475Z,20.30
2018-08-29T17:43:15.304Z,20.30
2018-08-29T17:45:43.990Z,20.20
2018-08-29T17:48:12.758Z,20.20
2018-08-29T17:50:41.358Z,20.20
2018-08-29T17:53:09.947Z,20.20
2018-08-29T17:55:38.704Z,20.20
2018-08-29T17:58:07.510Z,20.20
2018-08-29T18:00:36.164Z,20.20
2018-08-29T18:03:04.948Z,20.20
2018-08-29T18:05:33.566Z,20.20
2018-08-29T18:08:02.305Z,20.20
2018-08-29T18:10:31.012Z,20.20
2018-08-29T18:12:59.579Z,20.20
2018-08-29T18:15:28.339Z,20.10
2018-08-29T18:17:57.040Z,20.10
2018-08-29T18:20:25.759Z,20.10
2018-08-29T18:22:54.295Z,20.10
2018-08-29T18:25:22.880Z,20.10
2018-08-29T18:27:51.502Z,20.10
2018-08-29T18:30:20.274Z,20.10
2018-08-29T18:32:49.032Z,20.10
2018-08-29T18:35:17.768Z,20.00
2018-08-29T18:37:46.660Z,20.10
2018-08-29T18:40:15.863Z,20.00
2018-08-29T18:42:44.449Z,20.00
2018-08-29T18:45:13.073Z,20.00
2018-08-29T18:47:41.776Z,20.00
2018-08-29T18:50:10.569Z,20.00
2018-08-29T18:52:39.206Z,20.00
2018-08-29T18:55:08.052Z,20.00
2018-08-29T18:57:36.755Z,20.00
2018-08-29T19:00:05.353Z,20.00
2018-08-29T19:02:33.975Z,20.00
2018-08-29T19:05:02.576Z,19.90
2018-08-29T19:07:31.329Z,19.90
2018-08-29T19:09:59.948Z,19.90
2018-08-29T19:12:28.666Z,19.90
2018-08-29T19:14:57.208Z,19.90
2018-08-29T19:17:26.098Z,19.90
2018-08-29T19:19:54.651Z,19.90
2018-08-29T19:22:23.440Z,19.90
2018-08-29T19:24:52.069Z,19.90
2018-08-29T19:27:20.907Z,19.80
2018-08-29T19:29:49.528Z,19.80
2018-08-29T19:32:18.239Z,19.80
2018-08-29T19:34:46.860Z,19.70
2018-08-29T19:37:16.079Z,19.70
2018-08-29T19:39:44.752Z,19.70
2018-08-29T19:42:13.335Z,19.70
2018-08-29T19:44:42.431Z,19.70
2018-08-29T19:47:11.140Z,19.70
2018-08-29T19:49:39.857Z,19.70
2018-08-29T19:52:08.408Z,19.70
2018-08-29T19:54:36.992Z,19.60
2018-08-29T19:57:05.621Z,19.60
2018-08-29T19:59:34.273Z,19.70
2018-08-29T20:02:02.883Z,19.70
2018-08-29T20:04:31.824Z,19.60
2018-08-29T20:07:00.916Z,19.60
2018-08-29T20:09:29.529Z,19.60
2018-08-29T20:11:58.081Z,19.60
2018-08-29T20:14:26.629Z,19.60
2018-08-29T20:16:55.274Z,19.60
2018-08-29T20:19:23.816Z,19.60
2018-08-29T20:21:52.548Z,19.60
2018-08-29T20:24:21.416Z,19.60
2018-08-29T20:26:50.007Z,19.60
2018-08-29T20:29:18.887Z,19.60
2018-08-29T20:31:47.695Z,19.60
2018-08-29T20:34:16.258Z,19.60
2018-08-29T20:36:44.843Z,19.60
2018-08-29T20:39:13.481Z,19.60
2018-08-29T20:41:42.432Z,19.50
2018-08-29T20:44:11.050Z,19.50
2018-08-29T20:46:39.611Z,19.50
2018-08-29T20:49:08.481Z,19.50
2018-08-29T20:51:37.229Z,19.50
2018-08-29T20:54:05.800Z,19.50
2018-08-29T20:56:34.524Z,19.50
2018-08-29T20:59:03.050Z,19.50
2018-08-29T21:01:31.725Z,19.50
2018-08-29T21:04:00.292Z,19.50
2018-08-29T21:06:28.967Z,19.50
2018-08-29T21:08:57.980Z,19.40
2018-08-29T21:11:26.535Z,19.40
2018-08-29T21:13:55.195Z,19.40
2018-08-29T21:16:23.708Z,19.40
2018-08-29T21:18:52.255Z,19.40
2018-08-29T21:21:21.046Z,19.40
2018-08-29T21:23:49.551Z,19.40
2018-08-29T21:26:18.084Z,19.40
2018-08-29T21:29:17.056Z,19.40
2018-08-29T21:31:57.214Z,19.40
2018-08-29T21:34:38.740Z,19.40
2018-08-29T21:37:17.795Z,19.40
2018-08-29T21:39:46.512Z,19.40
2018-08-29T21:42:15.138Z,19.40
2018-08-29T21:44:54.852Z,19.30
2018-08-29T21:47:46.782Z,19.30
2018-08-29T21:51:01.040Z,19.30
2018-08-29T21:54:48.659Z,19.30
2018-08-29T21:59:43.597Z,19.30
2018-08-29T22:02:25.982Z,19.30
2018-08-29T22:05:06.108Z,19.30
2018-08-29T22:07:34.936Z,19.30
2018-08-29T22:10:03.579Z,19.30
2018-08-29T22:12:32.606Z,19.20
2018-08-29T22:15:02.025Z,19.20
2018-08-29T22:17:31.284Z,19.10
2018-08-29T22:20:00.229Z,19.10
2018-08-29T22:22:28.771Z,19.10
2018-08-29T22:24:57.327Z,19.10
2018-08-29T22:27:25.899Z,19.10
2018-08-29T22:29:54.462Z,19.10
2018-08-29T22:32:23.052Z,19.10
2018-08-29T22:34:51.632Z,19.00
2018-08-29T22:37:20.199Z,19.00
2018-08-29T22:39:48.694Z,18.90
2018-08-29T22:42:17.441Z,18.90
2018-08-29T22:44:46.180Z,18.80
2018-08-29T22:47:14.656Z,18.70
2018-08-29T22:49:43.286Z,18.70
2018-08-29T22:52:11.843Z,18.70
2018-08-29T22:54:40.717Z,18.60
2018-08-29T22:57:09.210Z,18.60
2018-08-29T22:59:37.711Z,18.60
2018-08-29T23:02:06.264Z,18.60
2018-08-29T23:04:34.859Z,18.50
2018-08-29T23:07:03.443Z,18.60
2018-08-29T23:09:31.927Z,18.70
2018-08-29T23:12:00.483Z,18.70
2018-08-29T23:14:29.076Z,18.70
2018-08-29T23:16:57.591Z,18.70
2018-08-29T23:19:26.159Z,18.70
2018-08-29T23:21:54.722Z,18.70
2018-08-29T23:24:23.239Z,18.60
2018-08-29T23:26:51.930Z,18.50
2018-08-29T23:29:20.502Z,18.60
2018-08-29T23:31:49.139Z,18.60
2018-08-29T23:34:17.755Z,18.60
2018-08-29T23:36:46.420Z,18.50
2018-08-29T23:39:14.986Z,18.50
2018-08-29T23:41:44.267Z,18.40
2018-08-29T23:44:13.331Z,18.40
2018-08-29T23:46:41.896Z,18.30
2018-08-29T23:49:10.471Z,18.30
2018-08-29T23:51:39.126Z,18.30
2018-08-29T23:54:07.712Z,18.30
2018-08-29T23:56:36.565Z,18.30
2018-08-29T23:59:05.127Z,18.20
